Aérodrome :
LOGIN :

S'inscrire | Disclaimer

   EN    FR    IT 

 










Légende :    VFR   VFR Marginal   IFR   IFR Intensif   IFR Très Intensif
Visi : 
Plafond : 
>= 8 km
>= 3000ft
5 à 8 km
1000 à 3000 ft
1500m à 5 km
500 à 1000 ft
800 à 1500m
200 à 500 ft
< 800m
< 200 ft
Symboles :   Orages  Brouillard  Fortes neiges  Fortes précipitations  Vent > 20 kt
SIGMETs :   Divers  Orages  Givrage  Turbulence  Onde Orograph.  Cendres Volcan.






- Altitude de l'aérodrome : 614 ft
- Code IATA : CRL


EBCI - Charleroi

DERNIER METAR :
  • 281150Z AUTO 03014KT CAVOK 13/02 Q1021

METARs EXPIRÉS :
  • 281120Z AUTO 02013KT CAVOK 12/03 Q1022
  • 281050Z AUTO 03013KT CAVOK 11/03 Q1022
  • 281020Z AUTO 04013KT CAVOK 11/03 Q1021
  • 280950Z AUTO 04010KT CAVOK 09/03 Q1021
  • 280920Z AUTO 03011KT CAVOK 08/02 Q1021

TAF TAF EBCI
Valide du 28 à 12h jusqu'au 29 à 18h UTC


281102Z 2812/2918 04013KT 9999 SCT018
TEMPO 2816/2824 03015G25KT
PROB40
TEMPO 2904/2908 BKN010
PROB40
TEMPO 2909/2916 04020G33KT 4500 SHGS SCT009 BKN014TCU



MET'MAP, la Météo Aéronautique d'un coup d'oeil ! - Copyright ORBIFLY Décembre 2007 - Disclaimer

ORBIFLY MET'MAP TEAM :

Programmation & Développement : Alexandra Zaïnal
Sur une idée originale de : Baudouin d'Aumeries
Assistance à la programmation : Marc-Olivier Méhu
Soutien technique & logistique : Manuel Goepfert

Contact : metmap@orbifly.com




SOURCES & CREDITS :

   NOAA